createdAt,value
2023-09-08T00:01:43.961Z,66.77
2023-09-08T00:04:10.587Z,65.57
2023-09-08T00:06:37.054Z,67.13
2023-09-08T00:09:04.355Z,67.59
2023-09-08T00:11:30.807Z,67.20
2023-09-08T00:13:58.585Z,68.66
2023-09-08T00:16:25.309Z,67.93
2023-09-08T00:18:51.950Z,67.65
2023-09-08T00:21:18.386Z,67.70
2023-09-08T00:23:44.868Z,68.22
2023-09-08T00:26:11.447Z,68.04
2023-09-08T00:28:38.098Z,69.23
2023-09-08T00:31:06.061Z,69.30
2023-09-08T00:33:32.610Z,69.44
2023-09-08T00:35:59.166Z,68.85
2023-09-08T00:38:25.808Z,70.60
2023-09-08T00:40:52.530Z,71.18
2023-09-08T00:43:19.024Z,69.88
2023-09-08T00:45:46.747Z,70.41
2023-09-08T00:48:14.888Z,70.66
2023-09-08T00:50:41.581Z,70.95
2023-09-08T00:53:08.710Z,70.59
2023-09-08T00:55:36.288Z,70.59
2023-09-08T00:58:03.003Z,70.24
2023-09-08T01:00:29.663Z,69.13
2023-09-08T01:02:56.271Z,69.64
2023-09-08T01:05:24.295Z,69.35
2023-09-08T01:10:18.983Z,69.80
2023-09-08T01:12:45.504Z,72.04
2023-09-08T01:15:12.464Z,72.96
2023-09-08T01:17:39.036Z,72.42
2023-09-08T01:20:13.402Z,72.24
2023-09-08T01:23:12.230Z,71.41
2023-09-08T01:25:43.670Z,72.99
2023-09-08T01:28:11.379Z,72.15
2023-09-08T01:30:38.529Z,72.70
2023-09-08T01:35:32.865Z,72.36
2023-09-08T01:37:59.370Z,73.18
2023-09-08T01:40:25.835Z,72.74
2023-09-08T01:42:54.276Z,73.89
2023-09-08T01:45:21.757Z,73.18
2023-09-08T01:47:48.329Z,73.60
2023-09-08T01:50:14.821Z,73.80
2023-09-08T01:52:41.298Z,74.60
2023-09-08T01:55:08.359Z,73.58
2023-09-08T01:57:34.830Z,73.69
2023-09-08T02:00:02.772Z,75.21
2023-09-08T02:02:29.247Z,73.91
2023-09-08T02:04:55.792Z,74.62
2023-09-08T02:07:22.370Z,73.94
2023-09-08T02:09:48.911Z,73.70
2023-09-08T02:12:15.347Z,72.65
2023-09-08T02:14:42.168Z,73.11
2023-09-08T02:17:10.026Z,75.33
2023-09-08T02:19:36.476Z,74.95
2023-09-08T02:22:03.137Z,75.55
2023-09-08T02:24:29.811Z,74.66
2023-09-08T02:26:56.272Z,75.47
2023-09-08T02:29:22.759Z,75.46
2023-09-08T02:31:49.403Z,75.65
2023-09-08T02:34:17.170Z,74.95
2023-09-08T02:36:43.644Z,75.55
2023-09-08T02:39:10.331Z,75.59
2023-09-08T02:41:36.782Z,76.66
2023-09-08T02:44:03.887Z,76.26
2023-09-08T02:46:30.459Z,76.99
2023-09-08T02:48:57.116Z,76.58
2023-09-08T02:51:25.059Z,75.99
2023-09-08T02:53:51.574Z,75.47
2023-09-08T02:56:18.041Z,75.97
2023-09-08T02:58:44.646Z,74.92
2023-09-08T03:01:12.829Z,76.98
2023-09-08T03:03:39.430Z,76.57
2023-09-08T03:06:06.004Z,76.17
2023-09-08T03:08:34.122Z,76.54
2023-09-08T03:11:00.986Z,76.91
2023-09-08T03:13:27.437Z,78.59
2023-09-08T03:15:53.900Z,77.53
2023-09-08T03:18:20.364Z,76.41
2023-09-08T03:20:49.549Z,77.32
2023-09-08T03:23:16.238Z,78.12
2023-09-08T03:25:44.496Z,78.01
2023-09-08T03:28:10.938Z,77.85
2023-09-08T03:30:37.541Z,78.47
2023-09-08T03:33:04.241Z,77.58
2023-09-08T03:35:30.833Z,77.29
2023-09-08T03:37:57.295Z,78.07
2023-09-08T03:40:23.792Z,77.92
2023-09-08T03:42:51.578Z,79.62
2023-09-08T03:45:19.524Z,78.89
2023-09-08T03:47:45.991Z,79.56
2023-09-08T03:50:12.532Z,80.25
2023-09-08T03:52:39.059Z,81.08
2023-09-08T03:55:05.858Z,81.04
2023-09-08T03:57:32.303Z,80.51
2023-09-08T04:00:00.178Z,79.56
2023-09-08T04:02:26.738Z,80.90
2023-09-08T04:04:53.340Z,80.75
2023-09-08T04:07:19.892Z,81.09
2023-09-08T04:09:46.340Z,81.31
2023-09-08T04:12:12.818Z,80.50
2023-09-08T04:14:39.302Z,81.33
2023-09-08T04:17:07.117Z,82.37
2023-09-08T04:19:34.795Z,82.65
2023-09-08T04:22:01.329Z,82.59
2023-09-08T04:24:27.791Z,81.50
2023-09-08T04:26:54.288Z,82.21
2023-09-08T04:29:20.749Z,81.94
2023-09-08T04:31:47.232Z,82.11
2023-09-08T04:34:15.090Z,82.68
2023-09-08T04:36:41.540Z,82.36
2023-09-08T04:39:08.032Z,81.72
2023-09-08T04:41:34.578Z,82.13
2023-09-08T04:44:01.059Z,82.55
2023-09-08T04:46:27.537Z,83.15
2023-09-08T04:48:54.012Z,82.61
2023-09-08T04:51:22.096Z,83.25
2023-09-08T04:53:48.648Z,83.50
2023-09-08T04:56:15.252Z,82.71
2023-09-08T04:58:41.810Z,83.43
2023-09-08T05:01:08.327Z,81.81
2023-09-08T05:03:35.022Z,81.47
2023-09-08T05:06:01.686Z,83.03
2023-09-08T05:08:29.558Z,83.95
2023-09-08T05:10:56.078Z,82.99
2023-09-08T05:13:30.976Z,83.65
2023-09-08T05:15:58.398Z,83.08
2023-09-08T05:18:25.006Z,82.22
2023-09-08T05:20:51.503Z,80.83
2023-09-08T05:23:17.955Z,80.93
2023-09-08T05:25:45.969Z,82.96
2023-09-08T05:28:12.480Z,81.80
2023-09-08T05:30:38.975Z,82.79
2023-09-08T05:33:05.760Z,81.92
2023-09-08T05:35:32.362Z,82.12
2023-09-08T05:37:58.913Z,83.23
2023-09-08T05:40:25.528Z,81.87
2023-09-08T05:42:53.435Z,82.20
2023-09-08T05:45:21.432Z,83.93
2023-09-08T05:47:48.759Z,83.32
2023-09-08T05:50:15.288Z,83.45
2023-09-08T05:52:41.920Z,83.16
2023-09-08T05:55:08.803Z,83.25
2023-09-08T05:57:35.361Z,83.65
2023-09-08T06:00:03.615Z,83.28
2023-09-08T06:02:30.362Z,82.56
2023-09-08T06:04:56.964Z,82.74
2023-09-08T06:07:23.556Z,81.71
2023-09-08T06:09:50.112Z,81.45
2023-09-08T06:12:16.736Z,81.27
2023-09-08T06:14:44.054Z,82.26
2023-09-08T06:17:12.089Z,81.65
2023-09-08T06:19:38.587Z,82.26
2023-09-08T06:22:05.060Z,79.50
2023-09-08T06:24:31.548Z,82.02
2023-09-08T06:26:58.067Z,80.69
2023-09-08T06:29:24.631Z,81.27
2023-09-08T06:31:51.416Z,80.46
2023-09-08T06:34:19.329Z,81.32
2023-09-08T06:36:45.962Z,80.68
2023-09-08T06:39:12.541Z,80.66
2023-09-08T06:41:39.005Z,80.26
2023-09-08T06:44:06.155Z,79.94
2023-09-08T06:46:32.738Z,80.00
2023-09-08T06:48:59.453Z,78.15
2023-09-08T06:51:27.288Z,79.07
2023-09-08T06:53:57.541Z,79.02
2023-09-08T06:56:24.193Z,79.26
2023-09-08T06:58:50.638Z,78.67
2023-09-08T07:01:17.336Z,77.27
2023-09-08T07:03:44.221Z,79.65
2023-09-08T07:06:10.895Z,77.68
2023-09-08T07:08:38.836Z,77.28
2023-09-08T07:11:05.358Z,76.88
2023-09-08T07:13:32.024Z,76.68
2023-09-08T07:15:58.645Z,75.93
2023-09-08T07:18:25.469Z,74.97
2023-09-08T07:20:51.970Z,74.52
2023-09-08T07:23:18.796Z,75.01
2023-09-08T07:25:47.890Z,75.68
2023-09-08T07:28:14.375Z,73.58
2023-09-08T07:30:40.964Z,73.16
2023-09-08T07:33:07.587Z,73.89
2023-09-08T07:35:37.530Z,73.29
2023-09-08T07:38:04.371Z,72.04
2023-09-08T07:40:33.205Z,71.79
2023-09-08T07:43:01.142Z,71.13
2023-09-08T07:45:27.671Z,71.07
2023-09-08T07:47:54.138Z,71.82
2023-09-08T07:50:22.851Z,71.39
2023-09-08T07:52:50.398Z,70.98
2023-09-08T07:55:17.539Z,70.67
2023-09-08T07:57:45.109Z,70.14
2023-09-08T08:00:14.368Z,70.86
2023-09-08T08:02:48.259Z,70.23
2023-09-08T08:05:15.649Z,69.87
2023-09-08T08:07:43.103Z,69.04
2023-09-08T08:10:10.704Z,69.62
2023-09-08T08:12:37.541Z,68.11
2023-09-08T08:15:05.460Z,68.71
2023-09-08T08:17:33.509Z,68.26
2023-09-08T08:20:00.143Z,67.59
2023-09-08T08:22:26.662Z,67.29
2023-09-08T08:24:53.160Z,67.81
2023-09-08T08:27:19.790Z,68.26
2023-09-08T08:29:46.366Z,66.01
2023-09-08T08:32:12.866Z,65.83
2023-09-08T08:34:40.830Z,65.62
2023-09-08T08:37:07.294Z,66.07
2023-09-08T08:39:33.799Z,67.96
2023-09-08T08:42:07.667Z,66.08
2023-09-08T08:44:34.400Z,65.83
2023-09-08T08:47:01.812Z,65.19
2023-09-08T08:49:29.595Z,63.80
2023-09-08T08:51:59.399Z,64.62
2023-09-08T08:54:26.009Z,63.62
2023-09-08T08:56:53.148Z,63.67
2023-09-08T08:59:19.833Z,63.52
2023-09-08T09:01:46.782Z,64.70
2023-09-08T09:04:14.436Z,63.37
2023-09-08T09:06:40.938Z,63.06
2023-09-08T09:09:09.083Z,63.33
2023-09-08T09:11:35.746Z,61.03
2023-09-08T09:14:02.262Z,61.19
2023-09-08T09:16:28.758Z,59.49
2023-09-08T09:18:56.666Z,58.66
2023-09-08T09:21:23.642Z,59.03
2023-09-08T09:23:50.568Z,59.38
2023-09-08T09:26:26.241Z,57.53
2023-09-08T09:28:53.349Z,56.46
2023-09-08T09:31:19.796Z,57.76
2023-09-08T09:33:46.297Z,57.33
2023-09-08T09:36:21.252Z,54.45
2023-09-08T09:38:48.490Z,53.24
2023-09-08T09:41:15.080Z,54.00
2023-09-08T09:43:43.528Z,54.83
2023-09-08T09:46:10.573Z,54.55
2023-09-08T09:48:37.638Z,54.92
2023-09-08T09:51:16.694Z,53.96
2023-09-08T09:53:43.773Z,52.31
2023-09-08T09:56:10.886Z,52.52
2023-09-08T09:58:38.798Z,51.07
2023-09-08T10:01:06.790Z,51.06
2023-09-08T10:03:34.079Z,51.86
2023-09-08T10:06:01.066Z,52.09
2023-09-08T10:08:28.448Z,52.06
2023-09-08T10:10:55.776Z,51.45
2023-09-08T10:13:27.092Z,50.00
2023-09-08T10:15:57.812Z,49.87
2023-09-08T10:18:26.666Z,51.21
2023-09-08T10:20:54.561Z,49.91
2023-09-08T10:23:24.599Z,48.83
2023-09-08T10:25:56.807Z,50.28
2023-09-08T10:28:23.604Z,49.59
2023-09-08T10:30:51.242Z,49.60
2023-09-08T10:33:20.290Z,49.71
2023-09-08T10:35:48.477Z,48.92
2023-09-08T10:38:26.016Z,50.64
2023-09-08T10:40:53.073Z,49.48
2023-09-08T10:43:20.092Z,47.77
2023-09-08T10:45:47.475Z,48.09
2023-09-08T10:48:15.416Z,48.03
2023-09-08T10:50:42.923Z,47.83
2023-09-08T10:53:14.138Z,47.37
2023-09-08T10:55:42.301Z,46.79
2023-09-08T10:58:10.592Z,47.97
2023-09-08T11:00:54.895Z,48.77
2023-09-08T11:03:29.590Z,48.18
2023-09-08T11:05:57.284Z,48.15
2023-09-08T11:08:27.273Z,48.88
2023-09-08T11:10:56.296Z,47.92
2023-09-08T11:13:23.268Z,48.50
2023-09-08T11:15:52.125Z,46.85
2023-09-08T11:18:18.768Z,46.83
2023-09-08T11:20:45.703Z,46.89
2023-09-08T11:23:12.412Z,46.57
2023-09-08T11:25:40.788Z,47.19
2023-09-08T11:28:07.413Z,46.40
2023-09-08T11:30:34.747Z,47.45
2023-09-08T11:33:01.269Z,44.81
2023-09-08T11:35:28.804Z,45.28
2023-09-08T11:38:00.628Z,44.90
2023-09-08T11:40:27.249Z,45.29
2023-09-08T11:42:55.426Z,45.03
2023-09-08T11:45:25.386Z,43.72
2023-09-08T11:47:53.532Z,44.56
2023-09-08T11:50:20.239Z,43.64
2023-09-08T11:52:47.994Z,45.09
2023-09-08T11:55:14.909Z,43.59
2023-09-08T11:57:42.638Z,43.26
2023-09-08T12:00:12.244Z,43.00
2023-09-08T12:02:38.991Z,42.22
2023-09-08T12:05:06.046Z,41.32
2023-09-08T12:07:32.811Z,41.77
2023-09-08T12:09:59.365Z,41.85
2023-09-08T12:12:26.743Z,40.00
2023-09-08T12:14:53.309Z,43.55
2023-09-08T12:17:21.877Z,42.69
2023-09-08T12:19:48.469Z,42.89
2023-09-08T12:22:14.930Z,39.79
2023-09-08T12:24:48.628Z,39.50
2023-09-08T12:27:15.268Z,39.30
2023-09-08T12:29:41.786Z,37.60
2023-09-08T12:32:08.400Z,36.55
2023-09-08T12:34:36.576Z,36.88
2023-09-08T12:37:03.267Z,36.52
2023-09-08T12:39:29.776Z,37.34
2023-09-08T12:41:56.256Z,37.86
2023-09-08T12:44:22.760Z,37.29
2023-09-08T12:46:49.609Z,36.04
2023-09-08T12:49:16.181Z,35.00
2023-09-08T12:51:44.063Z,35.91
2023-09-08T12:54:10.573Z,34.93
2023-09-08T12:56:37.168Z,35.13
2023-09-08T12:59:03.973Z,35.52
2023-09-08T13:01:30.479Z,34.11
2023-09-08T13:03:57.626Z,33.96
2023-09-08T13:06:24.226Z,33.33
2023-09-08T13:08:52.230Z,33.29
2023-09-08T13:11:18.956Z,32.73
2023-09-08T13:13:45.430Z,32.95
2023-09-08T13:16:11.937Z,32.35
2023-09-08T13:18:38.385Z,32.67
2023-09-08T13:21:04.846Z,32.67
2023-09-08T13:23:31.512Z,33.88
2023-09-08T13:25:59.343Z,33.96
2023-09-08T13:28:25.808Z,35.32
2023-09-08T13:30:53.227Z,35.16
2023-09-08T13:33:19.773Z,34.34
2023-09-08T13:35:46.322Z,34.39
2023-09-08T13:38:12.870Z,33.02
2023-09-08T13:40:39.395Z,32.97
2023-09-08T13:43:07.191Z,32.58
2023-09-08T13:45:33.705Z,32.50
2023-09-08T13:48:00.773Z,31.99
2023-09-08T13:50:27.810Z,32.51
2023-09-08T13:52:55.932Z,33.09
2023-09-08T13:55:34.916Z,33.37
2023-09-08T13:58:05.166Z,33.93
2023-09-08T14:00:38.490Z,33.39
2023-09-08T14:03:06.879Z,33.39
2023-09-08T14:05:36.807Z,32.18
2023-09-08T14:08:08.617Z,32.17
2023-09-08T14:10:51.018Z,32.67
2023-09-08T14:13:20.028Z,32.65
2023-09-08T14:15:47.937Z,31.57
2023-09-08T14:18:14.430Z,32.49
2023-09-08T14:20:41.049Z,32.39
2023-09-08T14:23:07.564Z,31.05
2023-09-08T14:25:34.143Z,31.43
2023-09-08T14:28:01.700Z,32.34
2023-09-08T14:30:28.683Z,31.38
2023-09-08T14:32:56.573Z,32.31
2023-09-08T14:35:23.251Z,33.02
2023-09-08T14:37:50.077Z,34.78
2023-09-08T14:40:16.759Z,34.18
2023-09-08T14:42:43.209Z,34.10
2023-09-08T14:45:11.040Z,34.74
2023-09-08T14:47:37.612Z,35.53
2023-09-08T14:50:06.448Z,35.22
2023-09-08T14:52:32.937Z,35.32
2023-09-08T14:54:59.701Z,36.22
2023-09-08T14:57:26.255Z,35.49
2023-09-08T14:59:53.198Z,34.09
2023-09-08T15:02:19.702Z,35.00
2023-09-08T15:04:46.317Z,35.82
2023-09-08T15:07:14.194Z,35.87
2023-09-08T15:09:40.712Z,35.34
2023-09-08T15:12:07.526Z,36.37
2023-09-08T15:14:33.997Z,36.22
2023-09-08T15:17:00.521Z,36.73
2023-09-08T15:19:27.007Z,36.57
2023-09-08T15:21:53.492Z,36.16
2023-09-08T15:24:21.270Z,36.66
2023-09-08T15:26:47.731Z,37.35
2023-09-08T15:29:15.405Z,37.29
2023-09-08T15:31:41.958Z,37.44
2023-09-08T15:34:08.528Z,38.19
2023-09-08T15:36:34.975Z,38.64
2023-09-08T15:39:01.616Z,38.91
2023-09-08T15:41:29.405Z,38.52
2023-09-08T15:43:56.061Z,38.47
2023-09-08T15:46:22.620Z,38.48
2023-09-08T15:48:49.212Z,38.97
2023-09-08T15:51:15.993Z,39.29
2023-09-08T15:53:42.510Z,39.18
2023-09-08T15:56:10.107Z,39.06
2023-09-08T15:58:38.041Z,38.97
2023-09-08T16:01:04.867Z,39.53
2023-09-08T16:03:31.704Z,42.05
2023-09-08T16:05:58.504Z,41.38
2023-09-08T16:08:25.447Z,41.16
2023-09-08T16:10:52.393Z,40.92
2023-09-08T16:13:19.147Z,41.16
2023-09-08T16:15:46.918Z,40.83
2023-09-08T16:18:13.366Z,41.08
2023-09-08T16:20:39.925Z,41.77
2023-09-08T16:23:06.557Z,42.33
2023-09-08T16:25:33.047Z,42.07
2023-09-08T16:27:59.595Z,42.43
2023-09-08T16:30:26.761Z,42.33
2023-09-08T16:32:54.582Z,42.12
2023-09-08T16:35:21.160Z,43.18
2023-09-08T16:37:47.609Z,44.45
2023-09-08T16:40:14.085Z,44.55
2023-09-08T16:42:40.601Z,43.77
2023-09-08T16:45:08.011Z,44.03
2023-09-08T16:47:35.092Z,43.96
2023-09-08T16:50:03.340Z,45.11
2023-09-08T16:52:29.808Z,45.30
2023-09-08T16:54:56.287Z,45.51
2023-09-08T16:57:22.813Z,45.85
2023-09-08T16:59:49.380Z,47.33
2023-09-08T17:02:15.897Z,47.31
2023-09-08T17:04:42.408Z,47.15
2023-09-08T17:07:10.227Z,49.81
2023-09-08T17:09:36.999Z,48.81
2023-09-08T17:12:04.180Z,48.43
2023-09-08T17:14:30.654Z,49.20
2023-09-08T17:16:57.183Z,49.37
2023-09-08T17:19:23.789Z,49.30
2023-09-08T17:21:50.260Z,50.19
2023-09-08T17:24:18.044Z,50.79
2023-09-08T17:26:44.519Z,50.93
2023-09-08T17:29:11.076Z,52.04
2023-09-08T17:31:37.537Z,53.68
2023-09-08T17:34:07.699Z,52.74
2023-09-08T17:36:34.203Z,54.83
2023-09-08T17:39:00.679Z,54.50
2023-09-08T17:41:28.505Z,55.65
2023-09-08T17:43:54.963Z,56.58
2023-09-08T17:46:21.816Z,56.17
2023-09-08T17:48:48.476Z,56.56
2023-09-08T17:51:15.263Z,58.04
2023-09-08T17:53:41.742Z,58.52
2023-09-08T17:56:08.391Z,58.58
2023-09-08T17:58:36.163Z,57.24
2023-09-08T18:01:02.756Z,59.41
2023-09-08T18:03:29.360Z,57.97
2023-09-08T18:05:55.939Z,56.96
2023-09-08T18:08:22.468Z,59.64
2023-09-08T18:10:48.994Z,58.94
2023-09-08T18:13:15.467Z,59.43
2023-09-08T18:15:43.277Z,58.81
2023-09-08T18:18:10.150Z,58.69
2023-09-08T18:20:36.754Z,61.24
2023-09-08T18:23:03.258Z,59.70
2023-09-08T18:25:29.716Z,60.38
2023-09-08T18:27:56.176Z,60.75
2023-09-08T18:30:25.097Z,60.73
2023-09-08T18:32:52.889Z,60.71
2023-09-08T18:35:19.352Z,61.40
2023-09-08T18:37:45.829Z,62.01
2023-09-08T18:40:12.493Z,63.28
2023-09-08T18:42:38.901Z,62.79
2023-09-08T18:45:07.099Z,62.18
2023-09-08T18:47:33.774Z,62.13
2023-09-08T18:50:01.647Z,61.66
2023-09-08T18:52:28.108Z,62.89
2023-09-08T18:54:54.613Z,64.26
2023-09-08T18:57:21.144Z,62.92
2023-09-08T18:59:49.745Z,62.69
2023-09-08T19:02:16.445Z,62.79
2023-09-08T19:04:42.980Z,64.28
2023-09-08T19:07:10.854Z,60.97
2023-09-08T19:09:37.321Z,63.31
2023-09-08T19:12:04.390Z,63.80
2023-09-08T19:14:30.930Z,62.75
2023-09-08T19:16:57.674Z,63.98
2023-09-08T19:19:24.459Z,64.27
2023-09-08T19:21:50.973Z,65.03
2023-09-08T19:24:19.074Z,64.60
2023-09-08T19:26:45.554Z,64.04
2023-09-08T19:29:12.049Z,66.38
2023-09-08T19:31:38.550Z,64.25
2023-09-08T19:34:05.092Z,64.12
2023-09-08T19:36:31.623Z,65.30
2023-09-08T19:38:58.120Z,66.14
2023-09-08T19:41:25.960Z,66.35
2023-09-08T19:43:52.449Z,66.55
2023-09-08T19:46:19.157Z,66.85
2023-09-08T19:48:45.792Z,67.34
2023-09-08T19:51:12.322Z,66.50
2023-09-08T19:53:39.021Z,65.68
2023-09-08T19:56:05.747Z,68.18
2023-09-08T19:58:33.640Z,67.63
2023-09-08T20:01:04.239Z,69.03
2023-09-08T20:03:30.888Z,68.36
2023-09-08T20:05:57.430Z,67.85
2023-09-08T20:08:24.084Z,67.16
2023-09-08T20:10:54.440Z,68.61
2023-09-08T20:13:21.464Z,68.18
2023-09-08T20:15:58.622Z,67.86
2023-09-08T20:18:25.182Z,68.09
2023-09-08T20:20:53.364Z,68.59
2023-09-08T20:23:19.871Z,68.22
2023-09-08T20:25:46.371Z,66.78
2023-09-08T20:28:12.940Z,68.61
2023-09-08T20:30:40.209Z,67.83
2023-09-08T20:33:08.173Z,68.65
2023-09-08T20:35:35.827Z,68.64
2023-09-08T20:38:02.666Z,68.55
2023-09-08T20:40:29.174Z,69.86
2023-09-08T20:42:55.647Z,69.06
2023-09-08T20:45:22.235Z,70.41
2023-09-08T20:47:49.072Z,70.32
2023-09-08T20:50:17.222Z,70.18
2023-09-08T20:52:43.949Z,70.85
2023-09-08T20:55:11.215Z,71.01
2023-09-08T20:57:37.919Z,70.91
2023-09-08T21:00:05.517Z,70.85
2023-09-08T21:02:32.003Z,70.46
2023-09-08T21:04:58.731Z,70.32
2023-09-08T21:07:26.562Z,70.75
2023-09-08T21:09:53.029Z,71.56
2023-09-08T21:12:19.509Z,71.41
2023-09-08T21:14:46.179Z,71.74
2023-09-08T21:17:12.682Z,71.28
2023-09-08T21:19:39.186Z,71.03
2023-09-08T21:22:05.748Z,71.27
2023-09-08T21:24:33.633Z,71.48
2023-09-08T21:27:00.087Z,72.41
2023-09-08T21:29:26.735Z,72.83
2023-09-08T21:31:53.396Z,72.63
2023-09-08T21:34:19.890Z,73.13
2023-09-08T21:36:46.337Z,72.77
2023-09-08T21:39:12.828Z,72.22
2023-09-08T21:41:40.718Z,72.21
2023-09-08T21:44:07.217Z,73.52
2023-09-08T21:46:33.739Z,73.84
2023-09-08T21:49:00.399Z,73.87
2023-09-08T21:51:26.907Z,73.76
2023-09-08T21:53:53.407Z,73.56
2023-09-08T21:56:19.904Z,74.18
2023-09-08T21:58:47.715Z,74.36
2023-09-08T22:01:14.435Z,72.65
2023-09-08T22:03:41.202Z,73.07
2023-09-08T22:06:08.240Z,73.22
2023-09-08T22:08:35.036Z,74.60
2023-09-08T22:11:02.985Z,75.30
2023-09-08T22:13:29.462Z,74.94
2023-09-08T22:15:57.323Z,75.41
2023-09-08T22:18:23.891Z,74.88
2023-09-08T22:20:54.316Z,75.45
2023-09-08T22:23:20.799Z,74.80
2023-09-08T22:25:47.263Z,74.40
2023-09-08T22:28:13.721Z,75.49
2023-09-08T22:30:40.158Z,75.67
2023-09-08T22:33:08.449Z,73.91
2023-09-08T22:35:37.606Z,73.89
2023-09-08T22:38:04.205Z,75.11
2023-09-08T22:40:30.685Z,75.54
2023-09-08T22:42:57.191Z,74.25
2023-09-08T22:45:26.221Z,75.06
2023-09-08T22:47:52.793Z,75.38
2023-09-08T22:50:20.882Z,75.07
2023-09-08T22:52:47.413Z,76.30
2023-09-08T22:55:25.350Z,75.30
2023-09-08T22:57:52.532Z,76.10
2023-09-08T23:00:19.096Z,76.19
2023-09-08T23:02:46.093Z,75.44
2023-09-08T23:05:12.708Z,76.49
2023-09-08T23:07:41.971Z,76.15
2023-09-08T23:10:09.216Z,76.56
2023-09-08T23:12:35.704Z,76.21
2023-09-08T23:15:02.199Z,76.63
2023-09-08T23:17:28.746Z,76.20
2023-09-08T23:19:55.352Z,76.26
2023-09-08T23:22:22.027Z,76.16
2023-09-08T23:24:49.849Z,76.77
2023-09-08T23:27:16.540Z,75.92
2023-09-08T23:29:42.987Z,76.14
2023-09-08T23:32:09.511Z,74.91
2023-09-08T23:34:36.010Z,77.24
2023-09-08T23:37:02.906Z,77.49
2023-09-08T23:39:29.639Z,77.48
2023-09-08T23:41:57.659Z,77.85
2023-09-08T23:44:24.141Z,77.27
2023-09-08T23:46:50.577Z,77.59
2023-09-08T23:49:17.159Z,76.17
2023-09-08T23:51:43.619Z,77.71
2023-09-08T23:54:10.083Z,77.09
2023-09-08T23:56:36.571Z,77.64
2023-09-08T23:59:04.379Z,79.11
